Time;durP1;ratioP1;P1;durP2;ratioP2;P2;SDS_P1;SDS_P2;PMS_P1;PMS_P2;Temp;Humidity;BMP_temperature;BMP_pressure;BME280_temperature;BME280_humidity;BME280_pressure;Samples;Min_cycle;Max_cycle;Signal;HPM_P1;HPM_P2
2022/06/12 00:00:28;;;;;;;8.30;1.13;;;21.00;71.20;;;;;;4973714;28;20558;-83
2022/06/12 00:02:55;;;;;;;2.70;0.90;;;21.00;71.00;;;;;;4974014;28;20046;-83
2022/06/12 00:05:24;;;;;;;5.10;0.90;;;21.10;70.80;;;;;;4973987;28;20482;-83
2022/06/12 00:07:50;;;;;;;2.03;1.05;;;21.10;70.70;;;;;;4973894;28;20030;-83
2022/06/12 00:10:16;;;;;;;2.17;1.00;;;21.10;70.60;;;;;;4974231;28;20439;-83
2022/06/12 00:12:43;;;;;;;5.97;1.33;;;21.10;70.60;;;;;;4973561;28;20038;-83
2022/06/12 00:15:11;;;;;;;5.78;1.08;;;21.00;70.80;;;;;;4991397;28;20101;-84
2022/06/12 00:17:38;;;;;;;6.70;1.15;;;21.00;70.80;;;;;;4974732;28;20034;-85
2022/06/12 00:20:05;;;;;;;6.47;1.65;;;21.10;70.30;;;;;;4993184;28;20022;-84
2022/06/12 00:22:31;;;;;;;3.90;1.10;;;21.10;70.40;;;;;;4974772;28;20022;-83
2022/06/12 00:24:56;;;;;;;3.20;1.13;;;21.10;69.90;;;;;;4974669;28;20462;-84
2022/06/12 00:27:22;;;;;;;3.65;1.20;;;21.20;69.40;;;;;;4974372;28;20117;-83
2022/06/12 00:29:48;;;;;;;1.92;0.90;;;21.30;69.00;;;;;;4974103;28;20120;-83
2022/06/12 00:32:16;;;;;;;4.35;1.00;;;21.30;69.00;;;;;;4973811;28;20117;-82
2022/06/12 00:34:51;;;;;;;7.07;1.23;;;21.20;69.00;;;;;;4973969;28;20046;-82
2022/06/12 00:37:18;;;;;;;2.65;1.10;;;21.10;69.20;;;;;;4989836;28;20022;-83
2022/06/12 00:39:47;;;;;;;3.17;0.95;;;21.10;69.00;;;;;;4974016;28;20049;-82
2022/06/12 00:42:24;;;;;;;5.28;1.35;;;21.10;69.00;;;;;;4973628;28;20049;-84
2022/06/12 00:44:51;;;;;;;2.08;0.88;;;21.00;69.20;;;;;;4990933;28;20053;-84
2022/06/12 00:47:17;;;;;;;6.78;0.80;;;21.00;69.30;;;;;;4974324;28;20028;-84
2022/06/12 00:49:50;;;;;;;7.05;1.48;;;21.00;69.60;;;;;;4991260;28;20034;-84
2022/06/12 00:52:45;;;;;;;3.63;0.90;;;21.00;69.50;;;;;;4991901;28;20054;-83
2022/06/12 00:55:39;;;;;;;3.22;0.90;;;20.90;69.70;;;;;;4988201;28;20042;-83
2022/06/12 00:58:10;;;;;;;4.55;0.95;;;20.80;69.60;;;;;;4971903;28;20057;-83
2022/06/12 01:00:37;;;;;;;3.78;0.70;;;20.80;69.10;;;;;;4990556;28;20054;-84
2022/06/12 01:03:04;;;;;;;2.83;0.90;;;20.80;69.20;;;;;;4989826;28;20058;-83
2022/06/12 01:08:16;;;;;;;6.70;0.90;;;20.60;68.90;;;;;;4990640;28;20169;-84
2022/06/12 01:10:45;;;;;;;6.82;0.98;;;20.70;68.70;;;;;;4990387;28;20031;-84
2022/06/12 01:13:15;;;;;;;4.38;1.10;;;20.80;68.80;;;;;;4973772;28;20026;-83
2022/06/12 01:15:45;;;;;;;1.98;0.82;;;20.70;68.10;;;;;;4990482;28;20114;-83
2022/06/12 01:18:13;;;;;;;4.82;1.00;;;20.70;68.30;;;;;;4973332;28;20077;-83
2022/06/12 01:21:10;;;;;;;3.67;1.00;;;20.70;68.60;;;;;;4973126;28;20038;-82
2022/06/12 01:23:38;;;;;;;1.75;0.75;;;20.60;68.30;;;;;;4971850;28;20023;-82
2022/06/12 01:26:07;;;;;;;8.50;1.00;;;20.60;67.80;;;;;;4972573;28;20034;-83
2022/06/12 01:28:35;;;;;;;4.47;1.08;;;20.70;67.80;;;;;;4973095;28;20030;-87
2022/06/12 01:31:39;;;;;;;3.20;0.90;;;20.70;68.30;;;;;;4974307;28;20034;-83
2022/06/12 01:34:33;;;;;;;1.73;0.90;;;20.60;68.40;;;;;;4959822;28;20196;-84
2022/06/12 01:37:20;;;;;;;2.53;0.65;;;20.60;68.90;;;;;;4974168;28;20030;-85
2022/06/12 01:39:52;;;;;;;;;;;20.50;69.10;;;;;;4974442;28;20030;-85
2022/06/12 01:42:44;;;;;;;5.22;0.90;;;20.50;68.80;;;;;;4974313;28;19916;-85
2022/06/12 01:45:45;;;;;;;4.38;0.60;;;20.40;69.10;;;;;;4973273;28;20129;-84
2022/06/12 01:48:33;;;;;;;6.25;1.40;;;20.40;69.00;;;;;;4991170;28;20034;-83
2022/06/12 01:51:27;;;;;;;3.05;0.70;;;20.40;69.20;;;;;;4975585;28;20049;-85
2022/06/12 01:54:03;;;;;;;5.40;0.82;;;20.30;69.20;;;;;;4974208;28;20034;-84
2022/06/12 01:56:39;;;;;;;2.80;0.90;;;20.30;69.50;;;;;;4974091;28;20037;-85
2022/06/12 01:59:20;;;;;;;3.45;0.95;;;20.20;69.60;;;;;;4973848;28;20030;-84
2022/06/12 02:01:46;;;;;;;4.43;0.90;;;20.20;69.50;;;;;;4973085;28;20043;-84
2022/06/12 02:04:39;;;;;;;2.13;0.70;;;20.20;69.90;;;;;;4973636;28;20041;-83
2022/06/12 02:07:22;;;;;;;4.55;1.02;;;20.10;69.80;;;;;;4990574;28;20031;-84
2022/06/12 02:10:02;;;;;;;4.20;0.80;;;20.10;70.20;;;;;;4990503;28;20026;-83
2022/06/12 02:15:28;;;;;;;2.42;1.10;;;20.00;70.40;;;;;;4971279;28;20567;-84
2022/06/12 02:18:06;;;;;;;6.55;1.05;;;20.00;70.40;;;;;;4972957;28;20026;-83
2022/06/12 02:20:37;;;;;;;2.10;0.80;;;20.00;70.30;;;;;;4971032;28;20066;-84
2022/06/12 02:23:08;;;;;;;3.03;1.15;;;20.00;70.20;;;;;;4954173;28;20142;-84
2022/06/12 02:25:39;;;;;;;5.22;0.90;;;20.00;69.90;;;;;;4953538;28;20408;-83
2022/06/12 02:28:11;;;;;;;2.38;0.80;;;19.90;69.90;;;;;;4953366;28;20070;-83
2022/06/12 02:30:44;;;;;;;3.20;0.90;;;19.90;70.00;;;;;;4971190;28;20058;-83
2022/06/12 02:33:34;;;;;;;2.60;0.90;;;19.90;69.90;;;;;;4974611;28;20031;-83
2022/06/12 02:36:13;;;;;;;5.18;0.80;;;19.90;70.30;;;;;;4956997;28;20133;-84
2022/06/12 02:38:46;;;;;;;2.33;0.68;;;19.90;70.30;;;;;;4972591;28;20069;-83
2022/06/12 02:41:21;;;;;;;4.68;0.77;;;19.80;70.60;;;;;;4957173;28;20031;-84
2022/06/12 02:43:49;;;;;;;5.07;0.73;;;19.80;70.90;;;;;;4974592;28;20105;-84
2022/06/12 02:46:16;;;;;;;6.10;0.85;;;19.70;71.20;;;;;;4957033;28;20534;-83
2022/06/12 02:48:43;;;;;;;3.00;0.60;;;19.60;71.10;;;;;;4957488;28;20027;-84
2022/06/12 02:51:34;;;;;;;4.97;1.08;;;19.60;71.20;;;;;;4957552;28;20115;-84
2022/06/12 02:54:21;;;;;;;5.18;0.90;;;19.60;71.10;;;;;;4956849;28;20170;-84
2022/06/12 02:56:58;;;;;;;;;;;19.60;71.20;;;;;;4957645;28;20078;-84
2022/06/12 02:59:30;;;;;;;1.40;0.80;;;19.70;71.10;;;;;;4957199;28;20366;-84
2022/06/12 03:02:02;;;;;;;3.55;0.70;;;19.70;71.30;;;;;;4957192;28;20051;-84
2022/06/12 03:04:47;;;;;;;3.53;0.88;;;19.60;71.40;;;;;;4974696;28;20105;-84
2022/06/12 03:07:13;;;;;;;2.47;0.90;;;19.60;71.60;;;;;;4957503;28;20015;-83
2022/06/12 03:09:39;;;;;;;1.40;0.73;;;19.60;71.60;;;;;;4974105;28;20054;-84
2022/06/12 03:12:06;;;;;;;1.85;0.75;;;19.70;71.80;;;;;;4974118;28;20078;-83
2022/06/12 03:14:32;;;;;;;7.10;0.88;;;19.60;71.70;;;;;;4956175;28;20042;-82
2022/06/12 03:16:57;;;;;;;1.52;0.65;;;19.60;71.60;;;;;;4956717;28;20034;-84
2022/06/12 03:19:38;;;;;;;3.50;1.17;;;19.70;71.50;;;;;;4956669;28;20031;-84
2022/06/12 03:22:10;;;;;;;2.88;0.98;;;19.70;71.70;;;;;;4956427;28;20041;-84
2022/06/12 03:24:52;;;;;;;5.15;1.15;;;19.70;71.80;;;;;;4955646;28;20027;-85
2022/06/12 03:27:39;;;;;;;10.82;1.00;;;19.80;72.20;;;;;;4974066;28;20029;-85
2022/06/12 03:30:07;;;;;;;3.03;0.80;;;19.90;71.70;;;;;;4973739;28;20035;-83
2022/06/12 03:32:42;;;;;;;5.18;0.95;;;20.00;71.40;;;;;;4973955;28;20221;-84
2022/06/12 03:35:32;;;;;;;3.80;0.68;;;20.10;71.00;;;;;;4973405;28;20105;-84
2022/06/12 03:38:05;;;;;;;2.83;1.17;;;20.20;70.70;;;;;;4956639;28;20019;-85
2022/06/12 03:40:43;;;;;;;1.92;0.73;;;20.30;70.50;;;;;;4956132;28;20035;-84
2022/06/12 03:43:21;;;;;;;2.60;1.00;;;20.30;70.30;;;;;;4955547;28;20037;-84
2022/06/12 03:46:01;;;;;;;2.55;1.00;;;20.30;70.30;;;;;;4956057;28;20078;-85
2022/06/12 03:48:35;;;;;;;2.58;0.95;;;20.40;70.30;;;;;;4956359;28;20081;-83
2022/06/12 03:51:22;;;;;;;6.88;0.90;;;20.50;69.80;;;;;;4956150;28;20589;-83
2022/06/12 03:53:57;;;;;;;4.07;1.10;;;20.60;69.60;;;;;;4956076;28;20090;-84
2022/06/12 03:59:41;;;;;;;4.13;1.02;;;20.60;70.00;;;;;;4973964;28;20552;-85
2022/06/12 04:02:11;;;;;;;2.20;1.17;;;20.90;68.50;;;;;;4955510;28;20519;-84
2022/06/12 04:04:40;;;;;;;6.63;0.90;;;21.20;66.40;;;;;;4955537;28;20023;-85
2022/06/12 04:07:09;;;;;;;4.97;0.98;;;21.60;65.90;;;;;;4972693;28;20504;-85
2022/06/12 04:09:42;;;;;;;2.85;0.85;;;21.90;65.10;;;;;;4973226;28;20034;-85
2022/06/12 04:12:14;;;;;;;4.00;1.08;;;22.20;63.60;;;;;;4955671;28;20034;-85
2022/06/12 04:14:44;;;;;;;5.32;1.00;;;22.40;63.00;;;;;;4955898;28;20045;-85
2022/06/12 04:17:10;;;;;;;2.97;0.80;;;22.60;62.40;;;;;;4972353;28;20396;-85
2022/06/12 04:22:30;;;;;;;10.07;1.00;;;22.60;60.80;;;;;;4973454;28;20082;-84
2022/06/12 04:25:05;;;;;;;2.88;1.20;;;22.60;60.20;;;;;;4955177;28;20335;-84
2022/06/12 04:27:40;;;;;;;1.98;0.85;;;22.50;60.50;;;;;;4955332;28;20035;-84
2022/06/12 04:30:31;;;;;;;4.20;0.90;;;22.70;59.60;;;;;;4955675;28;20034;-84
2022/06/12 04:33:29;;;;;;;3.05;1.08;;;22.90;58.10;;;;;;4948624;28;20038;-84
2022/06/12 04:35:58;;;;;;;3.33;1.08;;;23.00;57.30;;;;;;4954991;28;20042;-85
2022/06/12 04:38:26;;;;;;;2.30;0.90;;;23.10;56.50;;;;;;4955406;28;20039;-84
2022/06/12 04:40:52;;;;;;;2.95;0.75;;;23.10;57.30;;;;;;4955207;28;20110;-82
2022/06/12 04:43:18;;;;;;;3.08;0.80;;;23.10;56.20;;;;;;4955284;28;20047;-83
2022/06/12 04:45:45;;;;;;;5.22;0.80;;;23.10;55.90;;;;;;4955487;28;20026;-83
2022/06/12 04:48:19;;;;;;;2.00;0.85;;;23.10;56.00;;;;;;4955553;28;20038;-83
2022/06/12 04:50:46;;;;;;;7.13;0.70;;;22.90;56.30;;;;;;4954546;28;20082;-81
2022/06/12 04:53:11;;;;;;;2.47;0.70;;;22.80;56.90;;;;;;4970809;28;20031;-84
2022/06/12 04:55:38;;;;;;;2.30;0.77;;;22.80;57.00;;;;;;4972079;28;20571;-83
2022/06/12 04:58:05;;;;;;;1.70;0.68;;;22.60;56.80;;;;;;4954818;28;20037;-83
2022/06/12 05:00:33;;;;;;;2.83;0.70;;;22.60;57.40;;;;;;4954570;28;20082;-83
2022/06/12 05:02:58;;;;;;;1.88;0.82;;;22.40;58.00;;;;;;4954226;28;20062;-83
2022/06/12 05:05:25;;;;;;;5.72;0.77;;;22.30;58.20;;;;;;4954573;28;20110;-83
2022/06/12 05:07:51;;;;;;;6.07;0.90;;;22.20;57.50;;;;;;4954232;28;20030;-82
2022/06/12 05:10:18;;;;;;;4.75;0.90;;;22.40;57.40;;;;;;4954208;28;20046;-83
2022/06/12 05:12:44;;;;;;;2.80;1.05;;;22.50;57.30;;;;;;4953831;28;20125;-83
2022/06/12 05:15:12;;;;;;;1.52;0.80;;;22.80;55.70;;;;;;4954753;28;20094;-83
2022/06/12 05:17:39;;;;;;;3.53;0.80;;;23.00;56.10;;;;;;4954307;28;20025;-83
2022/06/12 05:20:06;;;;;;;6.15;0.88;;;23.30;55.50;;;;;;4954211;28;20407;-83
2022/06/12 05:22:32;;;;;;;4.38;0.85;;;23.40;54.60;;;;;;4970666;28;20019;-83
2022/06/12 05:24:58;;;;;;;6.82;0.82;;;23.60;53.70;;;;;;4953968;28;20062;-84
2022/06/12 05:27:23;;;;;;;2.72;0.95;;;23.80;52.10;;;;;;4954042;28;20038;-83
2022/06/12 05:29:51;;;;;;;1.98;0.80;;;24.00;51.50;;;;;;4954703;28;20801;-82
2022/06/12 05:32:19;;;;;;;6.53;1.00;;;24.00;52.40;;;;;;4954496;28;20118;-82
2022/06/12 05:34:45;;;;;;;3.60;0.80;;;24.00;51.80;;;;;;4953716;28;20070;-84
2022/06/12 05:37:11;;;;;;;5.10;1.13;;;24.00;51.50;;;;;;4954279;28;20066;-84
2022/06/12 05:39:38;;;;;;;5.43;1.50;;;24.10;51.30;;;;;;4971221;28;20039;-84
2022/06/12 05:42:04;;;;;;;3.10;0.77;;;24.20;51.80;;;;;;4952952;28;20062;-84
2022/06/12 05:44:30;;;;;;;2.97;1.73;;;24.30;51.00;;;;;;4951374;28;20034;-84
2022/06/12 05:46:57;;;;;;;2.95;0.60;;;24.70;51.00;;;;;;4970042;28;20034;-85
2022/06/12 05:49:23;;;;;;;1.63;0.70;;;25.30;50.40;;;;;;4953197;28;20417;-84
2022/06/12 05:51:49;;;;;;;3.97;0.80;;;26.00;48.10;;;;;;4953902;28;20039;-84
2022/06/12 05:54:14;;;;;;;3.53;1.30;;;26.60;48.20;;;;;;4953543;28;20504;-83
2022/06/12 05:56:40;;;;;;;1.80;0.88;;;27.30;46.60;;;;;;4953228;28;20035;-84
2022/06/12 05:59:07;;;;;;;6.07;0.90;;;27.90;45.50;;;;;;4969462;28;20042;-84
2022/06/12 06:01:32;;;;;;;3.00;0.90;;;28.60;43.00;;;;;;4953565;28;20037;-85
2022/06/12 06:03:58;;;;;;;2.42;1.02;;;29.60;40.80;;;;;;4952830;28;20039;-85
2022/06/12 06:06:29;;;;;;;3.63;0.60;;;30.20;39.90;;;;;;4953212;28;20121;-83
2022/06/12 06:08:55;;;;;;;2.97;1.00;;;31.20;37.80;;;;;;4952926;28;20554;-85
2022/06/12 06:11:21;;;;;;;3.17;0.60;;;31.30;38.40;;;;;;4953389;28;20113;-85
2022/06/12 06:13:47;;;;;;;2.90;0.65;;;32.20;36.10;;;;;;4952901;28;20125;-85
2022/06/12 06:16:13;;;;;;;2.58;1.00;;;32.80;33.90;;;;;;4953449;28;20407;-85
2022/06/12 06:18:40;;;;;;;1.90;0.95;;;33.00;33.60;;;;;;4952999;28;20030;-84
2022/06/12 06:21:11;;;;;;;3.55;1.13;;;32.80;34.50;;;;;;4970589;28;20703;-84
2022/06/12 06:23:39;;;;;;;4.32;0.75;;;32.40;33.80;;;;;;4969925;28;20039;-85
2022/06/12 06:26:05;;;;;;;4.55;0.88;;;32.60;34.40;;;;;;4952479;28;20030;-86
2022/06/12 06:28:31;;;;;;;2.53;0.70;;;32.80;34.50;;;;;;4953539;28;20479;-85
2022/06/12 06:30:57;;;;;;;3.15;0.73;;;32.90;33.10;;;;;;4969708;28;20069;-83
2022/06/12 06:33:24;;;;;;;3.95;0.82;;;32.90;33.30;;;;;;4953099;28;20031;-84
2022/06/12 06:35:49;;;;;;;2.58;1.05;;;32.70;33.80;;;;;;4953097;28;20106;-84
2022/06/12 06:38:15;;;;;;;2.00;0.70;;;32.60;33.80;;;;;;4952803;28;20555;-84
2022/06/12 06:40:42;;;;;;;5.38;0.77;;;33.00;33.60;;;;;;4952759;28;20027;-84
2022/06/12 06:43:08;;;;;;;1.95;0.90;;;33.10;33.20;;;;;;4952975;28;20019;-85
2022/06/12 06:48:19;;;;;;;3.75;0.75;;;33.40;32.20;;;;;;4970509;28;20086;-85
2022/06/12 06:50:45;;;;;;;2.03;0.70;;;33.30;32.50;;;;;;4953100;28;20554;-85
2022/06/12 06:53:11;;;;;;;1.73;0.60;;;33.00;33.00;;;;;;4953021;28;20038;-84
2022/06/12 06:55:38;;;;;;;1.85;0.70;;;32.90;33.00;;;;;;4951822;28;20038;-84
2022/06/12 06:58:13;;;;;;;3.08;1.02;;;33.30;33.20;;;;;;4952923;28;20066;-85
2022/06/12 07:00:41;;;;;;;1.10;0.75;;;33.50;33.10;;;;;;4952040;28;20114;-84
2022/06/12 07:03:07;;;;;;;3.70;0.77;;;33.80;32.40;;;;;;4952502;28;20066;-84
2022/06/12 07:05:34;;;;;;;4.68;0.90;;;33.80;32.80;;;;;;4969527;28;20037;-83
2022/06/12 07:08:00;;;;;;;2.03;0.68;;;33.80;32.20;;;;;;4969594;28;20443;-82
2022/06/12 07:10:28;;;;;;;4.85;1.13;;;33.40;32.10;;;;;;4951510;28;20023;-82
2022/06/12 07:12:55;;;;;;;2.97;0.70;;;33.50;32.60;;;;;;4969221;28;20505;-82
2022/06/12 07:15:23;;;;;;;7.88;0.73;;;33.70;32.50;;;;;;4969515;28;20082;-83
2022/06/12 07:17:50;;;;;;;3.10;0.60;;;33.60;32.20;;;;;;4955186;28;20022;-82
2022/06/12 07:20:18;;;;;;;3.28;0.73;;;33.60;31.80;;;;;;4956009;28;20058;-82
2022/06/12 07:22:44;;;;;;;2.22;0.57;;;33.60;32.00;;;;;;4955183;28;20030;-82
2022/06/12 07:25:11;;;;;;;1.65;0.60;;;33.70;31.50;;;;;;4954930;28;20042;-82
2022/06/12 07:27:38;;;;;;;2.25;0.73;;;33.50;32.10;;;;;;4972437;28;20035;-83
2022/06/12 07:30:08;;;;;;;2.15;0.60;;;33.50;31.80;;;;;;4954956;28;20490;-83
2022/06/12 07:32:35;;;;;;;1.00;0.57;;;33.50;31.50;;;;;;4972179;28;20422;-82
2022/06/12 07:35:01;;;;;;;1.48;0.77;;;33.80;31.40;;;;;;4955101;28;20034;-82
2022/06/12 07:37:27;;;;;;;2.72;0.80;;;33.60;30.80;;;;;;4954257;28;20027;-82
2022/06/12 07:39:52;;;;;;;2.58;0.60;;;33.60;31.30;;;;;;4953876;28;20484;-82
2022/06/12 07:42:18;;;;;;;1.45;0.77;;;33.70;31.80;;;;;;4971851;28;20034;-82
2022/06/12 07:44:44;;;;;;;2.15;0.80;;;33.90;30.70;;;;;;4955311;28;20034;-82
2022/06/12 07:47:10;;;;;;;2.60;1.17;;;33.70;32.00;;;;;;4955095;28;20019;-81
2022/06/12 07:49:35;;;;;;;6.70;0.90;;;33.40;31.00;;;;;;4971619;28;20035;-82
2022/06/12 07:52:05;;;;;;;3.08;0.77;;;33.40;32.10;;;;;;4954737;28;20518;-81
2022/06/12 07:54:32;;;;;;;5.10;1.23;;;33.30;32.10;;;;;;4954059;28;20047;-83
2022/06/12 07:56:58;;;;;;;3.70;0.80;;;33.70;31.70;;;;;;4953980;28;20503;-82
2022/06/12 07:59:24;;;;;;;1.83;0.93;;;33.60;32.10;;;;;;4954576;28;20041;-82
2022/06/12 08:01:52;;;;;;;3.90;0.80;;;33.80;32.20;;;;;;4953194;28;20443;-82
2022/06/12 08:04:19;;;;;;;2.78;0.80;;;34.10;31.90;;;;;;4953829;28;20117;-82
2022/06/12 08:06:45;;;;;;;3.85;0.77;;;34.40;31.60;;;;;;4970802;28;20043;-82
2022/06/12 08:09:12;;;;;;;2.50;0.73;;;35.00;29.70;;;;;;4953723;28;20129;-81
2022/06/12 08:11:40;;;;;;;2.55;0.90;;;34.80;30.10;;;;;;4953194;28;20035;-81
2022/06/12 08:14:06;;;;;;;1.67;0.60;;;34.70;31.40;;;;;;4953252;28;20031;-81
2022/06/12 08:16:33;;;;;;;2.20;0.73;;;35.10;31.20;;;;;;4953588;28;20026;-82
2022/06/12 08:18:59;;;;;;;4.15;0.75;;;35.40;31.00;;;;;;4953477;28;20392;-82
2022/06/12 08:21:26;;;;;;;5.18;0.95;;;35.80;29.20;;;;;;4953174;28;20518;-82
2022/06/12 08:23:55;;;;;;;5.10;0.90;;;35.20;30.50;;;;;;4953380;28;20035;-82
2022/06/12 08:26:30;;;;;;;1.48;0.85;;;35.10;30.10;;;;;;4952702;28;20451;-82
2022/06/12 08:29:09;;;;;;;2.88;0.80;;;35.30;29.70;;;;;;4970147;28;20499;-80
2022/06/12 08:31:45;;;;;;;2.22;0.85;;;35.30;29.10;;;;;;4970874;28;20030;-81
2022/06/12 08:34:22;;;;;;;2.15;0.75;;;34.90;28.40;;;;;;4953625;28;20113;-82
2022/06/12 08:36:49;;;;;;;1.50;0.70;;;34.70;28.20;;;;;;4953254;28;20043;-81
2022/06/12 08:39:15;;;;;;;0.70;0.50;;;34.30;29.30;;;;;;4952894;28;20065;-80
2022/06/12 08:42:12;;;;;;;4.90;0.88;;;33.90;29.70;;;;;;4970045;28;20061;-82
2022/06/12 08:44:50;;;;;;;0.90;0.70;;;33.60;30.80;;;;;;4952466;28;20046;-81
2022/06/12 08:47:38;;;;;;;7.90;1.00;;;33.80;30.50;;;;;;4969846;28;20072;-81
2022/06/12 08:50:29;;;;;;;2.13;0.70;;;34.40;30.80;;;;;;4951668;28;20073;-82
2022/06/12 08:52:54;;;;;;;2.50;0.80;;;35.10;29.80;;;;;;4968978;28;20034;-82
2022/06/12 08:55:32;;;;;;;1.27;0.80;;;35.20;29.90;;;;;;4951702;28;20027;-81
2022/06/12 08:58:08;;;;;;;2.38;0.90;;;35.50;29.10;;;;;;4952156;28;20091;-82
2022/06/12 09:00:37;;;;;;;1.30;0.75;;;35.90;29.10;;;;;;4952157;28;20049;-82
2022/06/12 09:03:06;;;;;;;6.38;0.70;;;35.70;27.70;;;;;;4951915;28;20046;-81
2022/06/12 09:05:43;;;;;;;1.50;0.73;;;35.70;27.90;;;;;;4952066;28;20558;-81
2022/06/12 09:08:31;;;;;;;1.73;0.73;;;35.90;28.40;;;;;;4952125;28;20031;-81
2022/06/12 09:11:09;;;;;;;4.05;0.75;;;35.70;28.70;;;;;;4952383;28;20030;-81
2022/06/12 09:13:53;;;;;;;4.18;0.90;;;35.80;29.80;;;;;;4969087;28;20050;-80
2022/06/12 09:16:40;;;;;;;1.80;0.63;;;35.90;29.30;;;;;;4969346;28;20058;-82
2022/06/12 09:19:40;;;;;;;4.60;0.82;;;36.20;28.30;;;;;;4968871;28;20042;-82
2022/06/12 09:22:24;;;;;;;5.22;0.75;;;35.80;28.80;;;;;;4951543;28;20716;-81
2022/06/12 09:25:21;;;;;;;1.95;0.90;;;35.50;28.80;;;;;;4969043;28;20023;-81
2022/06/12 09:28:13;;;;;;;2.03;0.70;;;35.30;29.30;;;;;;4951764;28;20054;-82
2022/06/12 09:30:53;;;;;;;1.17;0.70;;;35.10;29.30;;;;;;4968529;28;20027;-81
2022/06/12 09:33:24;;;;;;;4.97;0.80;;;35.50;30.00;;;;;;4969145;28;20041;-81
2022/06/12 09:36:01;;;;;;;3.67;1.00;;;35.70;28.90;;;;;;4951742;28;20038;-82
2022/06/12 09:38:51;;;;;;;2.03;0.88;;;36.00;28.20;;;;;;4968689;28;20022;-81
2022/06/12 09:41:24;;;;;;;4.93;1.05;;;35.60;28.10;;;;;;4951679;28;20035;-80
2022/06/12 09:44:12;;;;;;;1.65;0.80;;;35.00;29.30;;;;;;4951668;28;20065;-81
2022/06/12 09:46:43;;;;;;;3.08;1.10;;;35.10;29.20;;;;;;4951653;28;20031;-81
2022/06/12 09:49:33;;;;;;;3.30;0.80;;;35.00;29.00;;;;;;4951309;28;20078;-81
2022/06/12 09:52:20;;;;;;;1.15;0.90;;;35.00;29.70;;;;;;4951483;28;20019;-81
2022/06/12 09:55:02;;;;;;;5.05;1.00;;;35.40;29.90;;;;;;4951293;28;20042;-81
2022/06/12 09:57:36;;;;;;;2.30;0.80;;;35.60;29.50;;;;;;4968696;28;20027;-80
2022/06/12 10:00:17;;;;;;;5.45;1.17;;;35.50;29.10;;;;;;4951926;28;20031;-82
2022/06/12 10:03:08;;;;;;;3.00;0.80;;;35.40;29.30;;;;;;4951058;28;20050;-80
2022/06/12 10:05:55;;;;;;;2.35;0.80;;;35.10;30.20;;;;;;4952135;28;20054;-80
2022/06/12 10:08:34;;;;;;;2.78;0.82;;;34.70;29.80;;;;;;4951329;28;20031;-81
2022/06/12 10:11:13;;;;;;;2.45;1.17;;;34.20;30.00;;;;;;4968789;28;20026;-82
2022/06/12 10:14:09;;;;;;;2.47;0.60;;;33.50;30.40;;;;;;4951727;28;20035;-83
2022/06/12 10:16:37;;;;;;;;;;;32.90;30.90;;;;;;4951945;28;20121;-82
2022/06/12 10:19:12;;;;;;;8.80;0.85;;;32.10;31.60;;;;;;4951059;28;19910;-82
2022/06/12 10:21:40;;;;;;;1.85;0.73;;;31.80;32.90;;;;;;4951357;28;20174;-82
2022/06/12 10:24:09;;;;;;;6.60;0.95;;;31.80;33.20;;;;;;4968473;28;20512;-82
2022/06/12 10:26:35;;;;;;;1.63;0.73;;;31.80;32.70;;;;;;4951207;28;20486;-81
2022/06/12 10:29:11;;;;;;;1.35;0.80;;;31.60;32.40;;;;;;4950968;28;20186;-82
2022/06/12 10:31:59;;;;;;;3.17;0.85;;;31.60;33.70;;;;;;4968444;28;20159;-82
2022/06/12 10:34:30;;;;;;;1.40;0.80;;;31.70;33.70;;;;;;4968473;28;20463;-82
2022/06/12 10:37:15;;;;;;;1.42;0.70;;;31.60;33.40;;;;;;4951090;28;20037;-82
2022/06/12 10:39:41;;;;;;;1.83;0.90;;;31.60;33.50;;;;;;4950705;28;20031;-81
2022/06/12 10:42:08;;;;;;;1.98;0.90;;;31.60;33.40;;;;;;4951198;28;20043;-82
2022/06/12 10:44:42;;;;;;;2.53;1.02;;;31.40;33.40;;;;;;4951377;28;20490;-82
2022/06/12 10:47:16;;;;;;;1.38;0.68;;;31.40;33.60;;;;;;4951390;28;20034;-82
2022/06/12 10:49:42;;;;;;;2.38;1.15;;;31.20;34.90;;;;;;4950860;28;20459;-82
2022/06/12 10:52:19;;;;;;;3.05;0.77;;;30.80;33.20;;;;;;4953042;28;20027;-83
2022/06/12 10:54:45;;;;;;;4.35;0.80;;;30.80;35.10;;;;;;4954569;28;20043;-82
2022/06/12 10:57:29;;;;;;;1.90;0.75;;;30.80;35.20;;;;;;4954288;28;20034;-82
2022/06/12 11:00:24;;;;;;;4.32;1.02;;;30.90;34.80;;;;;;4971497;28;20031;-83
2022/06/12 11:03:15;;;;;;;3.63;0.80;;;31.10;33.90;;;;;;4954376;28;20779;-82
2022/06/12 11:06:25;;;;;;;3.63;1.05;;;30.80;34.00;;;;;;4955201;28;20023;-82
2022/06/12 11:09:29;;;;;;;1.77;0.80;;;30.50;34.00;;;;;;4932402;28;20542;-83
2022/06/12 11:12:07;;;;;;;1.08;0.60;;;30.00;34.80;;;;;;4960960;28;20046;-83
2022/06/12 11:14:41;;;;;;;1.75;0.80;;;29.90;34.80;;;;;;4953872;28;20038;-82
2022/06/12 11:17:22;;;;;;;4.38;0.73;;;29.80;34.80;;;;;;4954462;28;20503;-83
2022/06/12 11:19:57;;;;;;;1.17;0.85;;;29.80;35.10;;;;;;4954803;28;20034;-81
2022/06/12 11:22:38;;;;;;;1.35;0.60;;;29.80;36.20;;;;;;4954125;28;20396;-83
2022/06/12 11:25:19;;;;;;;2.35;0.70;;;29.80;34.60;;;;;;4970473;28;20038;-81
2022/06/12 11:28:00;;;;;;;1.85;0.80;;;29.90;36.00;;;;;;4954661;28;20035;-83
2022/06/12 11:30:57;;;;;;;2.08;0.85;;;30.10;34.50;;;;;;4953935;28;20026;-83
2022/06/12 11:33:37;;;;;;;2.65;0.80;;;30.00;35.40;;;;;;4971220;28;20027;-81
2022/06/12 11:36:17;;;;;;;5.03;0.90;;;30.10;35.00;;;;;;4954177;28;20038;-82
2022/06/12 11:39:11;;;;;;;2.03;0.82;;;30.30;33.60;;;;;;4954170;28;20133;-83
2022/06/12 11:41:58;;;;;;;1.52;0.70;;;30.10;35.10;;;;;;4954104;28;20066;-81
2022/06/12 11:44:30;;;;;;;2.65;0.90;;;29.90;35.00;;;;;;4971158;28;20058;-82
2022/06/12 11:47:08;;;;;;;2.05;1.00;;;29.90;35.60;;;;;;4971093;28;20039;-83
2022/06/12 11:49:39;;;;;;;1.98;0.70;;;30.10;36.30;;;;;;4953674;28;20040;-83
2022/06/12 11:52:05;;;;;;;2.67;0.90;;;30.30;35.00;;;;;;4953757;28;20129;-83
2022/06/12 11:54:54;;;;;;;2.05;0.70;;;30.40;33.90;;;;;;4970589;28;20570;-83
2022/06/12 11:57:27;;;;;;;1.75;0.70;;;30.30;33.90;;;;;;4949729;28;20041;-83
2022/06/12 12:00:18;;;;;;;1.00;0.65;;;30.20;35.50;;;;;;4953440;28;20638;-81
2022/06/12 12:02:56;;;;;;;2.50;0.85;;;30.30;35.20;;;;;;4952751;28;20166;-84
2022/06/12 12:05:27;;;;;;;2.38;0.80;;;30.20;34.60;;;;;;4953786;28;20085;-82
2022/06/12 12:07:56;;;;;;;2.45;0.60;;;30.20;35.60;;;;;;4970921;28;20027;-83
2022/06/12 12:10:46;;;;;;;3.47;0.98;;;30.30;34.10;;;;;;4953539;28;20125;-83
2022/06/12 12:13:24;;;;;;;1.15;0.70;;;30.00;33.70;;;;;;4953007;28;20023;-82
2022/06/12 12:16:03;;;;;;;3.70;0.82;;;29.80;34.50;;;;;;4952658;28;20038;-82
2022/06/12 12:18:49;;;;;;;4.55;0.70;;;29.90;35.30;;;;;;4953436;28;20027;-83
2022/06/12 12:21:30;;;;;;;1.33;0.70;;;30.10;35.90;;;;;;4953435;28;20121;-82
2022/06/12 12:23:57;;;;;;;4.60;0.95;;;30.30;34.90;;;;;;4953325;28;20037;-82
2022/06/12 12:26:24;;;;;;;2.53;0.70;;;30.40;35.50;;;;;;4969955;28;20031;-82
2022/06/12 12:28:55;;;;;;;2.70;0.93;;;30.50;34.50;;;;;;4970326;28;20470;-83
2022/06/12 12:31:22;;;;;;;2.17;0.77;;;30.50;34.40;;;;;;4952874;28;20037;-81
2022/06/12 12:33:50;;;;;;;3.63;0.73;;;30.60;34.60;;;;;;4952359;28;20411;-81
2022/06/12 12:41:55;;;;;;;2.60;1.08;;;30.40;35.60;;;;;;4969940;28;20066;-82
2022/06/12 12:44:34;;;;;;;1.35;0.80;;;30.40;34.70;;;;;;4952248;28;20026;-82
2022/06/12 12:47:01;;;;;;;2.08;1.10;;;30.50;35.80;;;;;;4952533;28;20097;-82
2022/06/12 12:49:36;;;;;;;4.75;0.70;;;30.50;35.30;;;;;;4964268;28;20494;-82
2022/06/12 12:52:18;;;;;;;2.08;0.98;;;30.70;35.30;;;;;;4988058;28;20030;-83
2022/06/12 12:54:53;;;;;;;2.70;0.77;;;30.80;35.10;;;;;;4971286;28;20074;-83
2022/06/12 12:57:32;;;;;;;1.63;0.70;;;30.80;34.00;;;;;;4988431;28;20041;-81
2022/06/12 12:59:58;;;;;;;2.85;1.30;;;30.70;34.30;;;;;;4989427;28;20053;-83
2022/06/12 13:02:38;;;;;;;5.90;0.50;;;30.50;33.70;;;;;;4971635;28;20525;-82
2022/06/12 13:05:17;;;;;;;2.55;0.60;;;30.30;34.60;;;;;;4989511;28;20046;-83
2022/06/12 13:08:09;;;;;;;1.65;0.70;;;30.40;33.90;;;;;;4971359;28;20447;-82
2022/06/12 13:10:51;;;;;;;2.70;0.88;;;30.30;34.10;;;;;;4987500;28;20041;-82
2022/06/12 13:13:39;;;;;;;4.57;0.55;;;30.30;34.20;;;;;;4971655;28;20034;-82
2022/06/12 13:16:13;;;;;;;2.28;0.70;;;30.30;34.00;;;;;;4987498;28;20045;-83
2022/06/12 13:18:50;;;;;;;2.90;0.82;;;30.30;33.40;;;;;;4971320;28;20034;-82
2022/06/12 13:21:39;;;;;;;1.20;0.77;;;30.40;33.40;;;;;;4988117;28;20491;-82
2022/06/12 13:24:33;;;;;;;1.60;0.80;;;30.50;33.10;;;;;;4971150;28;20037;-82
2022/06/12 13:27:19;;;;;;;0.60;0.50;;;30.60;33.00;;;;;;4971222;28;20026;-82
2022/06/12 13:29:46;;;;;;;3.50;0.75;;;30.60;32.80;;;;;;4988605;28;20041;-81
2022/06/12 13:32:33;;;;;;;3.15;1.15;;;30.40;34.00;;;;;;4971105;28;20097;-83
2022/06/12 13:35:05;;;;;;;2.70;0.73;;;30.50;33.50;;;;;;4971172;28;20076;-82
2022/06/12 13:37:36;;;;;;;1.80;0.80;;;30.40;33.20;;;;;;4987849;28;20697;-83
2022/06/12 13:40:22;;;;;;;2.25;0.80;;;30.40;32.70;;;;;;4987524;28;20089;-82
2022/06/12 13:42:48;;;;;;;1.92;0.70;;;30.50;33.00;;;;;;4986373;28;20097;-82